Date,TemperatureHighF,TemperatureAvgF,TemperatureLowF,DewpointHighF,DewpointAvgF,DewpointLowF,HumidityHigh,HumidityAvg,HumidityLow,PressureMaxIn,PressureMinIn,WindSpeedMaxMPH,WindSpeedAvgMPH,GustSpeedMaxMPH,PrecipitationSumIn
2014-1-16,35.0,33.7,33.0,4.0,0.5,0.0,24,22,21,30.14,30.08,10,2,13,0.00
2014-1-17,40.0,33.5,26.0,8.0,1.2,-6.0,24,23,21,30.17,30.09,13,1,13,0.00
2014-1-18,32.0,28.5,26.0,0.0,-2.6,-6.0,24,22,19,30.11,29.83,12,2,13,0.00
2014-1-19,30.0,27.7,24.0,0.0,-4.1,-6.0,23,22,20,29.87,29.57,16,0,16,0.00
2014-1-20,33.0,24.8,6.0,0.0,-5.4,-23.0,26,22,20,29.99,29.62,15,2,15,0.00
2014-1-21,8.0,4.6,-2.0,-13.0,-19.9,-23.0,28,24,22,30.26,29.98,16,4,16,0.00
2014-1-22,5.0,1.3,-2.0,-13.0,-16.9,-23.0,32,31,27,30.15,29.72,26,11,26,0.00
2014-1-23,13.0,4.9,-5.0,-6.0,-16.3,-23.0,34,31,26,30.22,29.97,13,1,13,0.00
2014-1-24,10.0,3.8,-4.0,-13.0,-17.1,-23.0,35,29,26,30.34,30.21,17,1,17,0.00
2014-1-25,38.0,26.1,2.0,8.0,-1.7,-23.0,34,26,22,30.21,29.35,21,2,21,0.06
2014-1-26,30.0,14.1,7.0,0.0,-10.0,-13.0,33,29,26,30.10,29.33,20,1,20,0.00
2014-1-27,41.0,27.1,11.0,11.0,-0.7,-13.0,31,26,24,30.09,29.63,19,3,25,0.07
2014-1-28,16.0,11.2,6.0,-6.0,-9.6,-13.0,36,33,26,30.45,30.09,16,1,16,0.00
2014-1-29,19.0,13.7,10.0,-6.0,-8.1,-13.0,35,33,28,30.39,30.04,13,0,13,0.00
2014-1-30,26.0,17.6,7.0,0.0,-4.5,-13.0,36,33,29,30.59,30.27,12,0,12,0.00
2014-1-31,36.0,30.0,24.0,11.0,3.3,-6.0,35,29,26,30.34,30.13,18,1,19,0.00
2014-2-1,35.0,28.4,20.0,8.0,1.5,-6.0,31,29,26,30.53,30.22,12,1,12,0.00
2014-2-2,40.0,34.6,29.0,8.0,4.3,0.0,28,25,22,30.22,30.03,8,0,8,0.09
2014-2-3,31.0,24.8,15.0,0.0,-1.5,-13.0,29,27,25,30.48,30.20,16,5,16,0.00
2014-2-4,26.0,18.6,8.0,0.0,-6.0,-13.0,33,30,26,30.63,30.46,12,1,13,0.00
2014-2-5,20.0,17.9,16.0,-6.0,-6.7,-13.0,29,28,25,30.59,29.92,22,7,22,0.00
2014-2-6,17.0,12.2,4.0,-6.0,-12.1,-23.0,30,27,25,30.42,30.08,13,1,13,0.00
2014-2-7,24.0,16.5,5.0,0.0,-7.9,-13.0,31,29,26,30.34,30.25,17,0,17,0.00
2014-2-8,24.0,17.1,7.0,-6.0,-7.9,-13.0,30,29,26,30.39,30.28,18,1,18,0.00
2014-2-9,23.0,16.7,12.0,-6.0,-7.4,-13.0,30,27,25,30.36,30.17,15,2,15,0.00
2014-2-10,22.0,16.2,9.0,-6.0,-9.2,-13.0,31,28,24,30.33,30.10,20,4,20,0.00
2014-2-11,18.0,10.5,1.0,-6.0,-11.0,-23.0,34,30,25,30.54,30.33,19,2,19,0.00
2014-2-12,22.0,9.1,-3.0,-6.0,-13.1,-23.0,36,31,26,30.70,30.54,15,1,16,0.00
2014-2-13,33.0,25.6,9.0,0.0,-4.4,-13.0,30,24,20,30.62,29.39,32,8,35,0.09
2014-2-14,38.0,29.9,19.0,4.0,-2.8,-13.0,25,21,19,29.79,28.83,26,6,26,0.31
2014-2-15,32.0,24.4,16.0,0.0,-5.0,-13.0,25,22,19,30.09,29.59,25,5,26,0.00
2014-2-16,25.0,19.5,12.0,-6.0,-7.5,-13.0,27,25,22,30.02,29.46,34,8,35,0.00
2014-2-17,22.0,13.6,7.0,-6.0,-11.0,-23.0,30,26,23,30.51,30.02,27,5,28,0.00
2014-2-18,30.0,16.9,-2.0,0.0,-9.4,-23.0,31,25,19,30.57,30.05,23,6,23,0.00
2014-2-19,32.0,26.5,18.0,0.0,-3.1,-13.0,25,23,19,30.24,29.88,25,4,26,0.02
2014-2-20,44.0,34.9,27.0,11.0,1.7,-6.0,30,22,18,30.41,29.89,16,1,17,0.15
2014-2-21,45.0,33.2,29.0,8.0,-0.2,-6.0,25,22,19,30.41,29.82,32,7,32,0.65
2014-2-22,46.0,37.3,27.0,8.0,2.3,-6.0,24,20,17,30.08,29.86,19,1,19,0.01
2014-2-23,42.0,34.7,24.0,8.0,3.8,-6.0,26,24,23,30.13,29.92,9,0,12,0.00
2014-2-24,35.0,27.3,13.0,4.0,-1.3,-13.0,29,26,22,30.00,29.80,24,4,24,0.00
2014-2-25,21.0,14.8,9.0,-6.0,-9.8,-13.0,30,29,27,30.09,29.97,18,2,19,0.00
2014-2-26,25.0,13.9,1.0,0.0,-8.6,-23.0,33,30,27,30.08,29.88,18,2,18,0.00
2014-2-27,20.0,11.7,-1.0,-6.0,-13.0,-23.0,33,27,23,30.02,29.79,12,1,13,0.00
2014-2-28,20.0,13.2,6.0,-6.0,-11.0,-13.0,29,28,25,30.63,29.87,22,3,22,0.00
2014-3-1,31.0,19.3,4.0,0.0,-5.6,-23.0,31,27,24,30.65,30.21,17,1,17,0.00
2014-3-2,31.0,25.1,16.0,0.0,-3.2,-13.0,28,25,20,30.21,30.14,16,3,19,0.00
2014-3-3,19.0,12.8,3.0,-6.0,-11.2,-23.0,30,27,25,30.46,30.18,22,4,23,0.00
2014-3-4,22.0,13.2,-4.0,-6.0,-11.0,-23.0,31,27,23,30.53,30.42,18,1,18,0.00
2014-3-5,18.0,12.2,8.0,-6.0,-10.7,-13.0,30,29,25,30.67,30.46,18,6,18,0.00
2014-3-6,27.0,12.8,0.0,0.0,-10.1,-23.0,31,29,27,30.78,30.67,17,3,19,0.00
2014-3-7,37.0,22.1,6.0,8.0,-4.3,-23.0,30,27,24,30.68,30.15,22,1,22,0.00
2014-3-8,45.0,31.0,18.0,16.0,1.7,-13.0,32,26,18,30.15,29.86,20,3,20,0.00
2014-3-9,33.0,24.6,18.0,8.0,0.4,-6.0,38,32,28,30.08,29.98,20,4,20,0.00
2014-3-10,34.0,22.8,18.0,4.0,-4.9,-13.0,31,25,21,30.06,29.87,16,2,17,0.00
2014-3-11,44.0,34.2,27.0,8.0,2.2,-6.0,26,23,20,29.87,29.69,15,1,15,0.06
2014-3-12,36.0,30.2,23.0,4.0,-1.2,-6.0,24,23,21,29.92,29.29,25,5,29,0.88
2014-3-13,30.0,15.4,10.0,0.0,-11.9,-23.0,26,25,22,29.93,29.20,38,10,38,0.01
2014-3-14,31.0,19.0,6.0,0.0,-8.4,-23.0,28,24,21,30.28,29.93,15,1,15,0.01
2014-3-15,43.0,36.5,31.0,8.0,2.4,-6.0,22,22,19,30.08,29.82,13,1,15,0.10
2014-3-16,33.0,22.8,9.0,11.0,-3.3,-13.0,50,28,22,30.37,29.90,23,4,23,0.06
2014-3-17,22.0,12.1,3.0,-6.0,-10.9,-13.0,49,31,24,30.38,30.19,21,3,25,0.01
2014-3-18,35.0,19.4,8.0,4.0,-5.6,-13.0,30,28,25,30.56,30.34,19,2,19,0.00
2014-3-19,37.0,26.9,15.0,11.0,-0.7,-13.0,36,27,21,30.63,30.31,16,4,17,0.00
2014-3-20,43.0,35.8,30.0,16.0,1.8,-6.0,34,22,18,30.31,29.64,20,5,26,0.45
2014-3-21,40.0,33.6,26.0,11.0,3.5,-6.0,35,25,21,30.11,29.79,17,2,20,0.00
2014-3-22,37.0,29.1,20.0,4.0,-1.8,-6.0,25,23,21,30.18,29.82,17,4,25,0.04
2014-3-23,38.0,26.0,11.0,16.0,-1.4,-13.0,48,28,21,30.23,30.03,22,5,28,0.01
2014-3-24,24.0,13.8,4.0,-6.0,-9.9,-23.0,35,29,26,30.28,30.13,24,5,25,0.00
2014-3-25,33.0,19.4,6.0,4.0,-6.8,-13.0,40,26,20,30.32,30.23,18,3,22,0.00
2014-3-26,27.0,22.7,18.0,0.0,-7.2,-13.0,29,21,16,30.24,29.58,48,14,50,0.15
2014-3-27,35.0,24.0,13.0,4.0,-0.8,-13.0,52,31,24,30.41,29.84,29,4,29,0.00
2014-3-28,44.0,36.1,29.0,11.0,3.1,-6.0,24,22,21,30.41,30.12,16,1,16,0.06
2014-3-29,48.0,40.8,35.0,11.0,5.7,-6.0,23,21,19,30.49,30.15,22,5,22,0.02
2014-3-30,36.0,32.5,31.0,4.0,-0.2,-6.0,23,21,16,30.40,29.92,32,14,32,1.47
2014-3-31,33.0,30.0,28.0,0.0,-1.8,-13.0,22,21,16,30.15,29.88,37,16,37,0.05
2014-4-1,47.0,34.7,27.0,18.0,1.4,-13.0,34,21,16,30.29,30.13,35,14,35,0.00
2014-4-2,36.0,29.5,23.0,4.0,-0.4,-13.0,28,24,22,30.34,30.26,17,4,17,0.00
2014-4-3,46.0,35.1,23.0,11.0,1.1,-13.0,25,21,16,30.33,30.23,19,3,19,0.00
2014-4-4,42.0,33.9,25.0,18.0,2.7,-6.0,39,25,20,30.40,30.23,17,6,18,0.01
2014-4-5,43.0,37.5,32.0,4.0,2.6,-6.0,23,21,18,30.25,29.76,25,6,25,0.45
2014-4-6,48.0,38.3,31.0,24.0,7.7,-6.0,45,26,20,30.32,29.95,22,3,22,0.01
2014-4-7,55.0,39.4,24.0,41.0,9.9,-13.0,67,29,21,30.46,30.28,19,2,19,0.00
2014-4-8,46.0,41.4,37.0,8.0,-6.5,-40.0,22,14,1,30.29,29.49,38,8,39,0.70
2014-4-9,50.0,41.2,31.0,50.0,14.3,-40.0,100,42,2,30.06,29.52,25,4,26,0.00
2014-4-10,48.0,38.1,23.0,44.0,20.1,-6.0,100,50,26,30.33,30.06,22,2,23,0.00
2014-4-11,61.0,46.4,40.0,37.0,12.8,4.0,41,24,21,30.23,30.10,15,2,16,0.02
2014-4-12,63.0,49.5,37.0,43.0,21.3,4.0,49,33,19,30.45,30.19,17,2,21,0.00
2014-4-13,43.0,39.2,36.0,14.0,6.9,0.0,34,24,18,30.59,30.25,19,6,19,0.14
2014-4-14,62.0,50.6,40.0,41.0,15.0,0.0,77,23,19,30.26,30.09,22,2,25,0.00
2014-4-15,57.0,52.2,46.0,18.0,15.3,8.0,24,22,20,30.14,29.81,33,5,33,0.43
2014-4-16,52.0,32.0,24.0,16.0,4.7,-6.0,45,30,19,30.84,29.81,27,8,29,0.52
2014-4-17,39.0,29.1,20.0,18.0,5.9,-13.0,45,35,22,31.04,30.84,19,5,19,0.00
2014-4-18,42.0,32.5,22.0,14.0,0.9,-13.0,29,23,22,30.89,30.44,17,4,17,0.00
2014-4-19,50.0,38.7,26.0,29.0,10.2,-6.0,47,30,19,30.53,30.30,29,5,31,0.00
2014-5-2,61.0,51.8,42.0,47.0,18.2,-40.0,85,27,3,29.97,29.82,16,2,16,0.02
2014-5-3,59.0,46.5,37.0,44.0,14.2,0.0,59,27,18,30.04,29.94,19,2,19,0.01
2014-5-4,54.0,44.8,39.0,18.0,9.9,4.0,23,22,15,29.96,29.66,17,3,17,0.08
2014-5-5,44.0,44.0,44.0,11.0,8.6,8.0,23,22,22,29.71,29.71,15,7,15,0.00
2014-5-19,51.0,49.0,48.0,14.0,11.5,11.0,22,21,20,30.17,30.15,16,2,17,0.34
2014-5-20,60.0,52.9,49.0,23.0,15.9,11.0,24,22,19,30.20,30.13,22,9,22,0.11
2014-5-21,56.0,51.7,46.0,18.0,15.5,8.0,24,23,22,30.24,30.17,13,3,13,0.00
2014-5-22,61.0,51.8,45.0,24.0,16.5,8.0,27,23,20,30.21,30.14,16,3,17,0.00
2014-5-23,66.0,50.6,40.0,29.0,14.6,4.0,25,22,19,30.24,30.12,15,2,15,0.00
2014-5-24,55.0,48.1,41.0,18.0,12.8,4.0,26,23,20,30.30,30.21,13,3,15,0.00
2014-5-25,63.0,50.2,43.0,28.0,15.3,8.0,28,23,20,30.32,30.23,14,2,14,0.00
2014-5-26,76.0,57.9,46.0,36.0,-4.6,-40.0,34,12,21,30.23,29.94,15,1,15,0.12
2014-5-27,54.0,49.8,46.0,-40.0,-40.0,-40.0,0,0,100,30.28,30.03,22,6,22,0.05
2014-5-28,55.0,45.4,39.0,-40.0,-40.0,-40.0,0,0,100,30.43,30.24,23,7,25,0.07
2014-5-29,63.0,48.8,35.0,-23.0,-37.8,-40.0,0,0,100,30.49,30.37,17,3,17,0.00
2014-5-30,56.0,45.9,39.0,-40.0,-40.0,-40.0,0,0,100,30.37,30.29,20,6,20,0.00
2014-5-31,64.0,50.7,38.0,-23.0,-36.4,-40.0,0,0,100,30.49,30.33,13,3,13,0.00
2014-6-1,71.0,59.3,50.0,-23.0,-30.3,-40.0,0,0,100,30.60,30.45,14,3,17,0.00
2014-6-2,65.0,54.0,44.0,-23.0,-35.8,-40.0,0,0,100,30.45,30.28,15,5,16,0.00
2014-6-3,60.0,53.4,48.0,-23.0,-39.0,-40.0,0,0,100,30.34,30.21,20,6,20,0.00
2014-6-4,53.0,50.2,48.0,47.0,-0.6,-40.0,90,20,3,30.21,30.05,13,4,13,0.08
2014-6-5,56.0,52.4,50.0,14.0,9.7,4.0,18,17,15,30.05,29.82,19,3,19,0.26
2014-6-6,67.0,60.0,56.0,29.0,20.0,14.0,25,20,17,30.01,29.79,27,5,27,0.05
2014-6-7,80.0,67.0,55.0,48.0,32.9,18.0,34,28,24,30.12,30.01,18,4,20,0.00
2014-6-8,71.0,60.8,53.0,36.0,26.3,16.0,29,26,24,30.19,30.10,15,3,16,0.00
2014-6-9,83.0,64.1,52.0,52.0,29.0,16.0,34,26,23,30.19,30.09,18,1,18,0.00
2014-6-10,66.0,58.8,52.0,31.0,23.9,16.0,27,25,24,30.35,30.18,22,4,28,0.00
2014-6-11,70.0,59.7,47.0,38.0,26.2,11.0,36,27,23,30.45,30.35,18,3,18,0.00
2014-6-12,63.0,55.9,52.0,28.0,22.0,16.0,27,26,24,30.49,30.41,14,2,14,0.00
2014-6-13,58.0,54.6,53.0,23.0,19.4,14.0,26,24,21,30.42,30.09,31,14,31,0.76
2014-6-14,68.0,59.0,53.0,31.0,20.7,14.0,25,22,19,30.09,30.02,19,3,20,0.06
2014-6-15,69.0,63.2,57.0,38.0,29.0,18.0,34,27,23,30.22,30.05,28,7,29,0.00
2014-6-16,68.0,60.9,56.0,39.0,30.4,23.0,43,31,26,30.33,30.21,27,10,27,0.00
2014-6-17,64.0,57.8,53.0,29.0,22.4,16.0,26,24,22,30.33,30.13,18,8,18,0.00
2014-6-18,75.0,62.1,53.0,37.0,23.4,14.0,26,22,19,30.13,29.86,25,4,28,0.56
2014-6-19,75.0,67.1,54.0,45.0,33.5,21.0,37,29,23,30.17,30.05,24,5,24,0.01
2014-6-20,59.0,52.6,49.0,33.0,19.3,14.0,38,26,23,30.15,30.09,12,1,13,0.00
2014-6-21,59.0,51.8,48.0,23.0,17.2,11.0,25,24,23,30.12,30.09,9,1,9,0.00
2014-6-22,71.0,59.7,48.0,42.0,24.1,11.0,36,25,20,30.27,30.12,13,2,13,0.00
2014-6-23,74.0,60.7,47.0,52.0,27.9,8.0,46,29,21,30.41,30.26,17,2,18,0.00
2014-6-24,72.0,62.1,51.0,44.0,29.6,14.0,39,29,24,30.41,30.22,20,2,20,0.00
2014-6-25,66.0,60.6,58.0,29.0,23.9,18.0,26,24,22,30.22,30.14,15,2,15,0.05
2014-6-26,59.0,56.6,54.0,21.0,18.7,16.0,23,22,20,30.21,30.07,24,8,25,0.52
2014-6-27,77.0,63.5,51.0,58.0,36.4,16.0,58,38,22,30.42,30.20,24,6,24,0.01
2014-6-28,84.0,66.0,48.0,71.0,37.8,11.0,64,37,23,30.51,30.40,9,0,10,0.00
2014-6-29,86.0,69.0,53.0,67.0,40.2,16.0,54,36,25,30.49,30.32,15,1,15,0.00
2014-6-30,81.0,66.3,55.0,42.0,29.9,18.0,32,25,23,30.32,30.11,17,2,17,0.00
2014-7-1,80.0,67.7,59.0,43.0,30.8,21.0,27,25,23,30.13,30.03,16,2,16,0.00
2014-7-2,81.0,69.4,63.0,44.0,32.7,24.0,27,25,24,30.20,30.02,17,3,17,0.00
2014-7-3,70.0,63.7,59.0,33.0,26.1,18.0,25,23,20,30.25,30.17,16,6,16,0.00
2014-7-4,78.0,66.3,59.0,39.0,28.2,18.0,27,24,19,30.28,30.03,16,3,16,0.32
2014-7-5,63.0,62.6,61.0,24.0,23.7,23.0,23,22,22,30.04,29.86,31,10,35,0.48
2014-7-6,80.0,68.8,58.0,63.0,42.9,23.0,57,40,26,30.09,30.03,17,1,17,0.00
2014-7-7,79.0,65.0,53.0,44.0,30.3,16.0,29,27,24,30.06,29.95,15,2,15,0.00
2014-7-8,81.0,66.3,58.0,43.0,29.4,21.0,27,25,21,30.03,29.92,15,2,16,0.00
2014-7-9,80.0,69.7,59.0,43.0,32.0,23.0,28,25,21,30.15,29.90,17,2,17,0.00
2014-7-10,81.0,68.7,58.0,57.0,34.5,21.0,45,28,22,30.41,30.13,8,1,13,0.00
2014-7-11,79.0,64.2,54.0,59.0,32.6,18.0,51,31,24,30.49,30.40,13,1,13,0.00
2014-7-12,80.0,66.0,52.0,57.0,31.6,16.0,47,28,24,30.48,30.37,16,2,16,0.00
2014-7-13,75.0,64.8,56.0,37.0,28.0,16.0,27,24,22,30.37,30.15,20,4,20,0.00
2014-7-14,80.0,67.4,62.0,41.0,29.0,23.0,26,23,21,30.17,30.08,15,3,15,0.06
2014-7-15,67.0,63.6,61.0,24.0,21.8,16.0,22,19,16,30.14,30.04,13,3,14,0.75
2014-7-16,67.0,62.9,61.0,21.0,15.8,14.0,19,15,13,30.11,30.04,16,4,16,1.01
2014-7-17,79.0,66.9,59.0,45.0,27.1,11.0,31,23,11,30.27,30.06,10,1,10,0.02
2014-7-18,80.0,66.8,56.0,57.0,34.8,21.0,46,30,26,30.47,30.27,12,1,13,0.00
2014-7-19,74.0,64.5,54.0,42.0,31.3,18.0,33,29,22,30.56,30.46,14,2,15,0.00
2014-7-20,73.0,64.3,58.0,39.0,30.7,21.0,31,28,23,30.52,30.44,15,2,15,0.00
2014-7-21,74.0,63.6,54.0,39.0,30.7,18.0,31,28,24,30.48,30.39,14,3,15,0.00
2014-7-22,79.0,66.8,56.0,45.0,32.2,18.0,31,27,21,30.41,30.21,16,2,16,0.00
2014-7-23,82.0,69.2,59.0,46.0,32.6,18.0,29,26,20,30.20,30.00,16,2,16,0.00
2014-7-24,68.0,62.8,56.0,33.0,25.9,18.0,27,24,20,30.10,29.97,19,3,19,0.20
2014-7-25,81.0,66.4,55.0,54.0,32.6,21.0,39,28,23,30.18,30.10,12,1,12,0.00
2014-7-26,79.0,66.0,55.0,47.0,31.6,18.0,34,27,22,30.21,30.11,12,1,12,0.00
2014-7-27,71.0,61.8,56.0,35.0,24.7,18.0,27,24,21,30.12,29.96,19,5,19,0.15
2014-7-28,64.0,61.8,60.0,24.0,19.0,16.0,21,19,17,29.97,29.74,17,4,17,0.20
2014-7-29,80.0,65.6,56.0,41.0,25.1,14.0,27,21,15,30.19,29.74,12,1,12,0.00
2014-7-30,68.0,60.3,55.0,31.0,22.7,16.0,26,23,20,30.31,30.19,17,4,17,0.00
2014-7-31,66.0,60.2,57.0,28.0,21.7,18.0,24,22,20,30.42,30.29,14,4,15,0.00
2014-8-1,74.0,65.0,57.0,36.0,26.0,16.0,25,23,19,30.51,30.40,17,4,17,0.00
2014-8-2,74.0,63.1,57.0,35.0,24.1,18.0,25,22,19,30.51,30.41,17,2,18,0.00
2014-8-3,70.0,62.1,54.0,33.0,23.9,14.0,25,23,19,30.41,30.31,16,3,16,0.00
2014-8-4,74.0,63.4,55.0,36.0,26.2,16.0,26,24,21,30.31,30.24,16,2,16,0.00
2014-8-5,83.0,69.5,59.0,46.0,32.9,21.0,29,26,21,30.28,30.14,13,1,13,0.00
2014-8-6,72.0,63.4,61.0,31.0,22.7,16.0,24,21,18,30.14,30.01,9,1,10,1.06
2014-8-7,76.0,62.6,54.0,37.0,21.8,14.0,25,20,18,30.12,30.02,15,2,15,0.78
2014-8-8,77.0,62.6,54.0,38.0,22.9,14.0,24,21,19,30.21,30.10,28,2,28,0.07
2014-8-9,78.0,66.3,57.0,42.0,29.7,16.0,29,25,23,30.31,30.20,20,4,21,0.01
2014-8-10,74.0,64.5,56.0,35.0,28.2,16.0,26,25,24,30.39,30.29,15,3,16,0.00
2014-8-11,71.0,61.2,54.0,32.0,22.8,14.0,26,22,19,30.43,30.36,14,2,14,0.00
2014-8-12,69.0,61.0,52.0,35.0,24.7,11.0,29,24,20,30.45,30.37,16,3,17,0.00
2014-8-13,62.0,59.2,57.0,26.0,21.9,16.0,26,23,21,30.38,29.98,37,11,37,0.24
2014-8-14,63.0,59.2,54.0,26.0,21.1,14.0,25,22,19,30.07,29.89,37,13,38,0.24
2014-8-15,67.0,60.0,54.0,28.0,21.2,14.0,26,22,18,30.13,30.06,13,3,13,0.00
2014-8-16,73.0,62.9,52.0,41.0,28.4,14.0,32,27,21,30.19,30.09,14,0,15,0.00
2014-8-17,67.0,60.4,57.0,31.0,24.1,18.0,29,24,22,30.15,29.98,10,1,10,0.05
2014-8-18,71.0,61.6,55.0,38.0,26.8,16.0,32,26,23,30.06,29.94,17,2,17,0.01
2014-8-19,78.0,64.0,54.0,42.0,30.3,21.0,30,28,25,30.18,30.05,13,2,13,0.00
2014-8-20,81.0,64.2,53.0,46.0,28.5,16.0,30,26,22,30.31,30.18,13,2,13,0.00
2014-8-21,74.0,62.4,54.0,38.0,27.6,16.0,29,26,23,30.39,30.29,15,2,15,0.00
2014-8-22,68.0,62.2,59.0,32.0,26.1,21.0,27,25,23,30.42,30.36,12,3,12,0.00
2014-8-23,69.0,62.4,54.0,32.0,26.5,16.0,27,25,23,30.41,30.36,18,5,18,0.00
2014-8-24,84.0,66.2,54.0,49.0,30.0,16.0,30,26,21,30.39,30.32,15,1,15,0.00
2014-8-25,77.0,65.8,55.0,43.0,30.7,16.0,30,27,21,30.41,30.30,14,2,14,0.00
2014-8-26,78.0,65.5,59.0,41.0,28.8,18.0,29,25,21,30.41,30.25,16,2,16,0.00
2014-8-27,79.0,66.0,59.0,41.0,29.5,21.0,28,25,22,30.25,30.08,13,1,13,0.00
2014-8-28,74.0,66.6,58.0,40.0,30.8,24.0,30,26,23,30.14,29.98,23,5,24,0.02
2014-8-29,71.0,59.9,51.0,37.0,26.6,14.0,32,28,23,30.48,30.14,22,6,22,0.00
2014-8-30,69.0,58.5,47.0,37.0,23.3,8.0,32,25,22,30.54,30.35,16,1,16,0.00
2014-8-31,77.0,65.5,58.0,37.0,27.9,18.0,25,24,22,30.35,30.17,15,1,15,0.15
2014-9-1,75.0,65.8,61.0,37.0,26.8,21.0,25,23,20,30.21,30.16,13,2,13,0.03
2014-9-2,64.0,61.2,58.0,23.0,19.1,16.0,23,19,16,30.19,29.99,12,4,14,0.00
2014-9-3,79.0,68.4,61.0,45.0,28.2,14.0,30,22,15,30.27,29.90,20,3,23,0.01
2014-9-4,80.0,66.7,56.0,47.0,31.9,18.0,34,27,23,30.44,30.28,13,1,13,0.00
2014-9-5,80.0,66.8,56.0,42.0,29.6,16.0,28,24,20,30.39,30.18,17,2,18,0.00
2014-9-6,79.0,68.7,60.0,40.0,29.5,18.0,25,23,19,30.18,29.98,23,2,25,0.38
2014-9-7,73.0,61.3,54.0,42.0,25.6,14.0,35,25,21,30.44,30.11,15,2,16,0.00
2014-9-8,65.0,56.6,45.0,38.0,24.1,8.0,37,28,23,30.67,30.44,14,3,16,0.00
2014-9-9,64.0,53.9,44.0,36.0,20.2,8.0,38,26,22,30.69,30.47,15,3,15,0.00
2014-9-10,65.0,55.1,47.0,28.0,17.4,8.0,24,22,18,30.47,30.28,16,3,16,0.00
2014-9-11,62.0,58.1,51.0,23.0,18.1,11.0,23,20,17,30.29,30.00,21,4,21,0.10
2014-9-12,64.0,56.3,49.0,42.0,24.0,11.0,47,29,20,30.47,30.04,20,4,25,0.00
2014-9-13,59.0,53.0,43.0,33.0,20.8,8.0,44,27,22,30.58,30.34,21,5,21,0.04
2014-9-14,60.0,53.0,44.0,37.0,20.4,11.0,42,27,21,30.44,30.30,23,5,26,0.01
2014-9-15,63.0,50.5,42.0,35.0,19.3,8.0,37,28,22,30.45,30.31,14,2,19,0.00
2014-9-16,62.0,52.9,46.0,24.0,17.2,8.0,25,23,22,30.32,30.18,10,0,10,0.01
2014-9-17,69.0,55.8,46.0,45.0,22.8,8.0,43,27,18,30.25,30.16,10,0,12,0.00
2014-9-18,68.0,54.5,44.0,36.0,22.2,8.0,40,28,20,30.37,30.11,18,3,18,0.00
2014-9-19,57.0,44.8,35.0,24.0,13.9,4.0,40,27,24,30.63,30.37,20,3,20,0.00
2014-9-20,61.0,52.0,39.0,26.0,18.6,4.0,26,25,23,30.60,30.30,19,2,23,0.00
2014-9-21,64.0,59.2,55.0,26.0,19.4,14.0,24,21,19,30.30,29.80,16,4,17,0.13
2014-9-22,73.0,60.0,47.0,41.0,24.0,14.0,43,26,17,30.21,29.69,20,2,22,0.03
2014-9-23,64.0,51.2,38.0,40.0,20.6,4.0,44,29,22,30.62,30.21,12,1,13,0.00
2014-9-24,58.0,50.3,41.0,32.0,16.7,4.0,40,25,22,30.91,30.62,17,4,19,0.00
2014-9-25,65.0,50.5,41.0,29.0,13.9,4.0,26,22,17,30.79,30.48,8,0,9,0.00
2014-9-26,75.0,55.3,43.0,39.0,18.3,4.0,27,22,19,30.48,30.36,13,1,13,0.00
2014-9-27,79.0,64.0,52.0,42.0,26.3,11.0,27,24,21,30.41,30.31,15,2,16,0.00
2014-9-28,79.0,62.4,52.0,40.0,24.2,11.0,27,23,19,30.38,30.19,12,0,13,0.00
2014-9-29,66.0,55.2,50.0,26.0,15.9,8.0,22,20,18,30.35,30.16,23,7,23,0.00
2014-9-30,55.0,50.9,47.0,14.0,11.2,8.0,20,19,17,30.31,30.27,16,6,19,0.00
2014-10-1,59.0,55.1,53.0,21.0,15.9,11.0,21,20,18,30.43,30.30,16,7,17,0.00
2014-10-2,65.0,53.7,48.0,28.0,15.3,8.0,26,21,18,30.46,30.39,17,7,19,0.00
2014-10-3,61.0,52.4,45.0,21.0,13.8,4.0,22,21,17,30.40,30.17,18,6,18,0.00
2014-10-4,59.0,55.9,52.0,18.0,14.5,11.0,22,19,15,30.17,29.86,30,9,31,0.10
2014-10-5,63.0,56.1,45.0,21.0,14.1,4.0,23,18,13,30.12,29.79,19,4,20,0.38
2014-10-6,62.0,49.5,39.0,24.0,12.9,0.0,26,22,17,30.43,30.12,16,1,19,0.00
2014-10-7,60.0,54.8,43.0,23.0,16.9,4.0,24,21,18,30.46,30.29,31,8,31,0.01
2014-10-8,64.0,58.0,53.0,24.0,18.7,14.0,22,21,19,30.29,29.89,23,5,23,0.34
2014-10-9,61.0,52.0,44.0,31.0,16.6,8.0,38,24,19,30.12,29.99,15,1,17,0.00
2014-10-10,59.0,47.6,39.0,28.0,13.2,4.0,33,23,22,30.31,30.12,13,1,13,0.00
2014-10-11,51.0,42.8,38.0,14.0,7.2,0.0,23,21,17,30.37,30.27,6,0,6,0.00
2014-10-12,57.0,45.9,38.0,21.0,9.3,0.0,31,21,17,30.49,30.29,22,2,22,0.00
2014-10-13,62.0,49.9,36.0,24.0,13.6,0.0,24,22,19,30.58,30.46,16,1,16,0.00
2014-10-14,64.0,57.6,51.0,24.0,19.3,11.0,22,21,21,30.47,30.37,13,1,13,0.00
2014-10-15,69.0,61.5,57.0,29.0,21.6,14.0,22,21,19,30.39,30.30,14,1,14,0.00
2014-10-16,63.0,60.1,58.0,23.0,17.7,14.0,20,19,17,30.30,30.03,27,5,27,0.49
2014-10-17,64.0,58.2,53.0,21.0,15.8,11.0,23,18,15,30.04,29.80,19,2,20,1.29
2014-10-18,63.0,56.0,50.0,24.0,17.0,8.0,23,21,18,29.89,29.71,13,1,13,0.09
2014-10-19,51.0,44.4,38.0,16.0,10.2,4.0,31,23,19,30.01,29.72,23,5,23,0.02
2014-10-20,49.0,41.1,32.0,21.0,9.3,0.0,35,25,22,30.21,30.01,19,1,19,0.00
2014-10-21,53.0,47.1,41.0,16.0,11.6,4.0,24,22,20,30.37,30.21,20,6,21,0.24
2014-10-22,49.0,46.3,45.0,11.0,5.8,4.0,20,18,16,30.39,30.26,34,16,34,0.18
2014-10-23,50.0,48.3,45.0,11.0,9.1,4.0,20,19,17,30.26,29.89,32,17,32,0.99
2014-10-24,49.0,45.5,42.0,11.0,7.2,0.0,20,19,18,29.91,29.81,28,10,28,0.06
2014-10-25,57.0,47.1,42.0,33.0,11.6,4.0,44,22,18,29.88,29.67,11,2,15,0.00
2014-10-26,56.0,48.5,42.0,18.0,11.8,4.0,23,21,19,29.75,29.58,20,2,20,0.03
2014-10-27,53.0,47.0,40.0,23.0,12.3,4.0,34,23,18,30.16,29.75,25,3,26,0.00
2014-10-28,51.0,45.8,41.0,14.0,9.7,4.0,23,21,19,30.34,30.15,14,4,14,0.00
2014-10-29,57.0,53.4,49.0,16.0,14.7,8.0,23,21,19,30.22,29.97,15,2,16,0.11
2014-10-30,55.0,46.0,38.0,18.0,9.9,0.0,24,21,18,30.18,29.99,13,1,13,0.01
2014-10-31,50.0,43.4,36.0,26.0,12.2,0.0,40,26,22,30.29,30.18,16,4,16,0.00
2014-11-1,43.0,39.4,33.0,11.0,3.4,-6.0,24,20,18,30.23,30.02,32,13,32,0.32
2014-11-2,34.0,31.4,30.0,0.0,-2.8,-6.0,22,20,19,30.03,29.47,53,21,53,0.43
2014-11-6,44.0,43.4,43.0,8.0,6.0,4.0,22,20,19,30.01,29.78,16,8,16,0.32
2014-11-7,44.0,38.0,32.0,8.0,1.7,-6.0,21,20,19,29.79,29.50,23,6,23,0.09
2014-11-8,38.0,33.0,28.0,11.0,1.8,-6.0,38,23,21,30.10,29.76,19,2,19,0.00
2014-11-9,51.0,40.8,32.0,14.0,4.7,-6.0,24,20,17,30.19,30.05,13,0,13,0.00
2014-11-10,51.0,40.4,29.0,23.0,5.9,-6.0,33,22,19,30.43,30.19,14,0,14,0.00
2014-11-11,55.0,44.8,33.0,18.0,9.4,-6.0,24,22,19,30.42,30.24,17,2,18,0.00
2014-11-12,52.0,49.2,41.0,14.0,10.3,0.0,21,19,18,30.24,30.08,16,3,16,0.00
2014-11-13,43.0,37.8,30.0,8.0,3.4,-6.0,27,21,19,30.26,30.15,12,1,16,0.00
2014-11-14,34.0,29.7,24.0,0.0,-6.3,-13.0,22,17,15,30.20,30.02,11,2,14,0.25
2014-11-15,33.0,25.7,20.0,0.0,-6.8,-13.0,33,21,17,30.48,30.20,17,1,17,0.00
2014-11-16,39.0,30.5,18.0,8.0,-0.4,-13.0,29,23,21,30.54,30.32,9,0,10,0.00
2014-11-17,49.0,36.7,32.0,8.0,0.9,-6.0,22,20,17,30.32,29.58,15,3,16,0.48
2014-11-18,43.0,32.1,23.0,4.0,-3.7,-13.0,21,18,17,29.93,29.54,16,2,16,0.03
2014-11-19,31.0,25.0,20.0,0.0,-8.0,-13.0,26,20,19,30.29,29.93,16,1,16,0.00
2014-11-20,40.0,32.0,25.0,11.0,0.7,-6.0,31,24,20,30.24,29.92,16,1,16,0.00
2014-11-21,29.0,24.4,18.0,0.0,-4.1,-13.0,36,25,19,30.47,29.99,29,4,29,0.01
2014-11-22,40.0,27.4,13.0,14.0,2.5,-13.0,40,31,21,30.51,30.12,17,1,17,0.00
2014-11-23,51.0,41.1,34.0,14.0,5.7,-6.0,35,21,16,30.38,30.12,10,0,11,0.00
2014-11-24,57.0,50.0,36.0,14.0,8.8,-6.0,20,18,15,30.35,29.82,34,6,34,0.65
2014-11-25,56.0,51.1,40.0,16.0,13.4,8.0,34,21,17,30.28,29.84,17,1,17,0.00
2014-11-26,40.0,34.8,30.0,16.0,3.2,-6.0,40,24,19,30.47,29.89,32,6,34,0.32
2014-11-27,31.0,27.8,23.0,-6.0,-6.3,-13.0,20,19,19,30.24,29.78,35,10,40,0.01
2014-11-28,24.0,20.7,17.0,-6.0,-12.8,-13.0,22,19,17,30.32,30.19,20,3,20,0.00
2014-11-29,28.0,19.1,13.0,-6.0,-10.4,-23.0,30,22,18,30.53,30.31,12,0,14,0.00
2014-11-30,48.0,38.9,20.0,8.0,2.4,-13.0,22,19,18,30.48,30.17,16,1,16,0.02
2014-12-1,54.0,44.3,29.0,16.0,7.9,-6.0,35,21,19,30.64,30.14,25,3,25,0.00
2014-12-2,29.0,22.1,19.0,8.0,1.5,-13.0,53,37,22,30.99,30.63,20,8,21,0.00
2014-12-3,50.0,40.1,20.0,8.0,-0.1,-13.0,22,16,14,30.76,29.98,21,4,22,1.09
2014-12-4,40.0,28.7,16.0,4.0,-4.3,-13.0,35,21,17,30.81,30.10,23,3,23,0.01
2014-12-5,29.0,17.9,11.0,4.0,-5.8,-23.0,43,30,20,30.98,30.73,16,3,17,0.00
2014-12-6,41.0,34.3,29.0,0.0,-3.2,-6.0,20,18,17,30.74,30.25,20,3,20,0.63
2014-12-7,32.0,21.6,7.0,-6.0,-11.9,-23.0,26,19,14,30.95,30.43,31,9,32,0.02
2014-12-8,18.0,11.9,4.0,-6.0,-12.9,-23.0,30,25,20,31.04,30.85,23,7,23,0.00
2014-12-9,41.0,33.4,18.0,0.0,-3.3,-13.0,21,18,17,30.85,30.01,35,11,35,1.30
2014-12-10,42.0,37.4,36.0,0.0,-1.8,-6.0,17,16,14,30.01,29.62,28,12,28,0.34
2014-12-11,45.0,38.1,33.0,0.0,-3.8,-13.0,15,14,12,29.97,29.68,22,2,22,0.14
2014-12-12,37.0,33.7,31.0,0.0,-5.9,-13.0,17,16,13,30.03,29.94,10,1,13,0.01
2014-12-13,34.0,32.3,30.0,-6.0,-6.9,-13.0,18,16,13,29.94,29.88,11,2,13,0.00
2014-12-14,36.0,32.9,28.0,0.0,-5.8,-13.0,18,17,17,30.03,29.92,19,4,19,0.00
2014-12-15,30.0,28.0,26.0,-6.0,-6.0,-13.0,18,18,17,30.37,30.02,22,6,23,0.00
2014-12-16,37.0,31.9,26.0,0.0,-6.2,-13.0,18,16,14,30.41,30.22,10,3,12,0.04
2014-12-17,41.0,37.3,32.0,0.0,-5.5,-13.0,17,14,13,30.22,29.76,24,7,24,0.43
2014-12-18,33.0,30.0,28.0,-6.0,-6.0,-13.0,17,17,16,29.93,29.75,20,4,20,0.02
2014-12-19,29.0,26.6,23.0,-6.0,-7.3,-13.0,19,18,17,30.32,29.92,20,4,23,0.00
2014-12-20,24.0,21.9,18.0,-13.0,-13.0,-13.0,20,19,19,30.55,30.32,24,6,24,0.00
2014-12-21,33.0,27.1,23.0,-6.0,-7.9,-13.0,19,18,18,30.59,30.52,11,3,11,0.00
2014-12-22,35.0,30.5,24.0,0.0,-7.9,-13.0,18,16,15,30.64,30.58,11,2,12,0.00
2014-12-23,37.0,34.4,31.0,0.0,-5.0,-13.0,18,16,12,30.62,30.45,18,7,19,0.06
2014-12-24,52.0,39.4,35.0,4.0,-6.2,-13.0,14,13,11,30.45,29.82,13,4,13,0.79
2014-12-25,56.0,48.3,39.0,8.0,4.9,0.0,25,16,12,29.97,29.61,19,2,20,0.41
2014-12-26,46.0,38.3,30.0,16.0,6.0,0.0,32,24,21,30.27,29.97,17,1,17,0.00
2014-12-27,45.0,35.7,28.0,14.0,3.1,-6.0,28,23,18,30.37,30.16,10,0,12,0.00
2014-12-28,43.0,38.2,30.0,0.0,-0.6,-6.0,19,17,14,30.15,29.84,9,1,13,0.60
2014-12-29,40.0,28.3,17.0,4.0,-4.8,-13.0,25,20,19,30.38,30.09,19,2,19,0.00
2014-12-30,17.0,12.9,8.0,-13.0,-13.0,-23.0,28,24,22,30.51,30.37,19,2,19,0.00
2014-12-31,20.0,12.7,5.0,-6.0,-12.7,-23.0,35,25,22,30.45,30.26,15,0,15,0.00
2015-1-1,28.0,22.2,9.0,0.0,-7.7,-23.0,30,23,19,30.26,30.02,12,0,13,0.00
2015-1-2,32.0,24.1,13.0,8.0,-3.3,-13.0,35,27,21,30.61,30.01,23,2,28,0.00